createdAt,value
2018-11-14T00:02:02.635Z,17.57
2018-11-14T00:04:31.913Z,16.77
2018-11-14T00:07:01.010Z,16.57
2018-11-14T00:09:45.308Z,20.30
2018-11-14T00:12:14.369Z,24.20
2018-11-14T00:14:43.628Z,19.17
2018-11-14T00:17:13.389Z,20.40
2018-11-14T00:19:42.684Z,18.40
2018-11-14T00:22:11.954Z,18.60
2018-11-14T00:24:41.552Z,21.23
2018-11-14T00:27:10.998Z,16.07
2018-11-14T00:29:40.938Z,20.52
2018-11-14T00:32:09.774Z,28.60
2018-11-14T00:34:39.049Z,20.70
2018-11-14T00:37:08.550Z,18.10
2018-11-14T00:39:38.033Z,23.47
2018-11-14T00:42:07.582Z,20.97
2018-11-14T00:44:36.863Z,21.27
2018-11-14T00:47:05.799Z,21.23
2018-11-14T00:49:35.070Z,22.97
2018-11-14T00:52:04.047Z,21.37
2018-11-14T00:54:33.891Z,20.50
2018-11-14T00:57:02.833Z,24.03
2018-11-14T00:59:32.114Z,26.90
2018-11-14T01:02:02.781Z,27.10
2018-11-14T01:04:31.999Z,25.43
2018-11-14T01:07:01.609Z,28.73
2018-11-14T01:09:31.346Z,24.02
2018-11-14T01:12:00.761Z,27.20
2018-11-14T01:14:30.215Z,29.27
2018-11-14T01:16:59.331Z,27.70
2018-11-14T01:19:29.521Z,32.38
2018-11-14T01:21:58.957Z,32.13
2018-11-14T01:24:28.227Z,29.50
2018-11-14T01:26:58.045Z,30.62
2018-11-14T01:29:27.758Z,30.23
2018-11-14T01:31:57.033Z,27.37
2018-11-14T01:34:26.354Z,32.60
2018-11-14T01:36:55.679Z,31.20
2018-11-14T01:39:25.234Z,28.30
2018-11-14T01:41:54.789Z,36.25
2018-11-14T01:44:24.070Z,33.33
2018-11-14T01:46:53.360Z,33.00
2018-11-14T01:49:22.679Z,32.63
2018-11-14T01:51:51.966Z,38.00
2018-11-14T01:54:21.810Z,34.38
2018-11-14T01:56:51.074Z,33.63
2018-11-14T01:59:20.646Z,36.05
2018-11-14T02:01:49.927Z,35.97
2018-11-14T02:04:20.246Z,41.73
2018-11-14T02:06:49.806Z,39.85
2018-11-14T02:09:20.264Z,35.60
2018-11-14T02:11:49.537Z,39.90
2018-11-14T02:14:20.090Z,41.50
2018-11-14T02:16:49.355Z,45.57
2018-11-14T02:19:19.638Z,35.65
2018-11-14T02:21:48.966Z,38.27
2018-11-14T02:24:18.222Z,41.87
2018-11-14T02:26:47.485Z,40.63
2018-11-14T02:29:17.058Z,40.80
2018-11-14T02:31:46.534Z,39.80
2018-11-14T02:34:16.058Z,45.93
2018-11-14T02:36:45.437Z,57.97
2018-11-14T02:39:14.698Z,52.37
2018-11-14T02:41:44.179Z,41.70
2018-11-14T02:44:14.189Z,40.75
2018-11-14T02:46:43.173Z,41.43
2018-11-14T02:49:12.910Z,40.63
2018-11-14T02:51:42.190Z,45.20
2018-11-14T02:54:11.457Z,43.53
2018-11-14T02:56:40.741Z,50.30
2018-11-14T02:59:10.197Z,42.43
2018-11-14T03:01:39.474Z,49.07
2018-11-14T03:04:09.317Z,42.03
2018-11-14T03:06:38.591Z,44.83
2018-11-14T03:09:07.625Z,44.47
2018-11-14T03:11:37.210Z,44.30
2018-11-14T03:14:05.694Z,46.87
2018-11-14T03:16:35.262Z,49.77
2018-11-14T03:19:04.058Z,50.53
2018-11-14T03:21:33.614Z,48.30
2018-11-14T03:24:03.182Z,51.10
2018-11-14T03:26:32.422Z,54.57
2018-11-14T03:29:01.981Z,59.35
2018-11-14T03:31:31.749Z,43.83
2018-11-14T03:34:01.001Z,54.60
2018-11-14T03:36:30.141Z,52.58
2018-11-14T03:38:59.422Z,57.63
2018-11-14T03:41:28.697Z,54.60
2018-11-14T03:43:58.137Z,51.87
2018-11-14T03:46:27.430Z,47.70
2018-11-14T03:48:56.701Z,47.43
2018-11-14T03:51:26.137Z,56.68
2018-11-14T03:53:55.401Z,50.37
2018-11-14T03:56:24.682Z,64.23
2018-11-14T03:58:54.246Z,56.00
2018-11-14T04:01:23.533Z,56.47
2018-11-14T04:03:52.799Z,50.03
2018-11-14T04:06:22.451Z,59.00
2018-11-14T04:08:52.202Z,54.38
2018-11-14T04:11:21.615Z,50.10
2018-11-14T04:13:51.602Z,57.63
2018-11-14T04:16:21.170Z,54.33
2018-11-14T04:18:50.437Z,62.80
2018-11-14T04:21:20.572Z,52.15
2018-11-14T04:23:49.610Z,56.77
2018-11-14T04:26:20.242Z,62.15
2018-11-14T04:28:50.490Z,59.17
2018-11-14T04:31:20.654Z,61.42
2018-11-14T04:33:49.971Z,57.57
2018-11-14T04:36:20.642Z,59.93
2018-11-14T04:38:49.918Z,47.90
2018-11-14T04:41:20.658Z,57.78
2018-11-14T04:43:49.943Z,57.60
2018-11-14T04:46:20.682Z,52.10
2018-11-14T04:48:50.308Z,52.10
2018-11-14T04:51:20.758Z,54.38
2018-11-14T04:53:50.321Z,56.75
2018-11-14T04:56:20.798Z,52.67
2018-11-14T04:58:50.337Z,58.60
2018-11-14T05:01:20.786Z,52.67
2018-11-14T05:03:50.360Z,57.67
2018-11-14T05:06:20.775Z,64.87
2018-11-14T05:08:50.042Z,60.10
2018-11-14T05:11:20.913Z,61.45
2018-11-14T05:13:50.545Z,55.53
2018-11-14T05:16:20.743Z,53.78
2018-11-14T05:18:50.319Z,69.75
2018-11-14T05:21:20.765Z,60.83
2018-11-14T05:23:50.045Z,76.77
2018-11-14T05:26:20.441Z,51.73
2018-11-14T05:28:49.725Z,61.90
2018-11-14T05:31:19.005Z,54.73
2018-11-14T05:33:48.426Z,59.73
2018-11-14T05:36:17.750Z,54.97
2018-11-14T05:38:47.016Z,58.63
2018-11-14T05:41:16.565Z,53.73
2018-11-14T05:43:45.849Z,58.17
2018-11-14T05:46:15.419Z,53.85
2018-11-14T05:48:44.893Z,53.43
2018-11-14T05:51:13.942Z,57.00
2018-11-14T05:53:43.225Z,52.53
2018-11-14T05:56:12.933Z,48.20
2018-11-14T05:58:42.266Z,49.10
2018-11-14T06:01:11.539Z,49.43
2018-11-14T06:03:41.007Z,44.70
2018-11-14T06:06:10.358Z,52.60
2018-11-14T06:08:39.693Z,48.43
2018-11-14T06:11:08.962Z,61.53
2018-11-14T06:13:38.195Z,49.90
2018-11-14T06:16:07.558Z,50.40
2018-11-14T06:18:36.830Z,47.98
2018-11-14T06:21:05.782Z,52.33
2018-11-14T06:23:35.114Z,51.53
2018-11-14T06:26:17.199Z,54.10
2018-11-14T06:28:53.998Z,45.27
2018-11-14T06:31:23.566Z,53.80
2018-11-14T06:33:52.527Z,46.33
2018-11-14T06:36:22.098Z,45.67
2018-11-14T06:38:51.957Z,55.55
2018-11-14T06:41:21.479Z,53.60
2018-11-14T06:43:50.741Z,46.67
2018-11-14T06:46:21.005Z,46.25
2018-11-14T06:48:50.665Z,48.47
2018-11-14T06:51:21.034Z,52.65
2018-11-14T06:53:50.297Z,45.27
2018-11-14T06:56:20.794Z,56.70
2018-11-14T06:58:50.152Z,47.00
2018-11-14T07:01:21.149Z,49.93
2018-11-14T07:03:51.006Z,53.97
2018-11-14T07:06:21.034Z,49.25
2018-11-14T07:08:50.309Z,44.53
2018-11-14T07:11:21.171Z,45.25
2018-11-14T07:13:50.757Z,46.53
2018-11-14T07:16:21.098Z,45.63
2018-11-14T07:18:50.702Z,54.03
2018-11-14T07:21:21.249Z,49.70
2018-11-14T07:23:50.890Z,45.30
2018-11-14T07:26:21.190Z,50.95
2018-11-14T07:28:51.439Z,45.17
2018-11-14T07:31:20.847Z,48.73
2018-11-14T07:33:50.387Z,51.43
2018-11-14T07:36:21.144Z,45.23
2018-11-14T07:38:50.947Z,47.13
2018-11-14T07:41:21.046Z,39.18
2018-11-14T07:43:50.306Z,38.00
2018-11-14T07:46:21.170Z,38.00
2018-11-14T07:48:50.793Z,35.70
2018-11-14T07:51:21.166Z,35.98
2018-11-14T07:53:50.991Z,23.53
2018-11-14T07:56:21.169Z,21.87
2018-11-14T07:58:49.880Z,17.80
2018-11-14T08:01:19.008Z,16.60
2018-11-14T08:03:48.274Z,17.67
2018-11-14T08:06:17.627Z,17.53
2018-11-14T08:08:47.013Z,13.70
2018-11-14T08:11:16.045Z,14.33
2018-11-14T08:13:45.319Z,15.50
2018-11-14T08:16:14.991Z,12.77
2018-11-14T08:18:44.254Z,15.23
2018-11-14T08:21:13.672Z,19.30
2018-11-14T08:23:43.169Z,15.83
2018-11-14T08:26:12.440Z,15.73
2018-11-14T08:28:41.649Z,11.63
2018-11-14T08:31:11.197Z,13.07
2018-11-14T08:33:40.205Z,15.20
2018-11-14T08:36:09.481Z,10.20
2018-11-14T08:38:39.417Z,14.68
2018-11-14T08:41:09.043Z,11.20
2018-11-14T08:43:38.312Z,12.20
2018-11-14T08:46:07.929Z,13.33
2018-11-14T08:48:37.197Z,13.03
2018-11-14T08:51:06.686Z,9.77
2018-11-14T08:53:36.306Z,11.13
2018-11-14T08:56:05.285Z,10.58
2018-11-14T08:58:34.343Z,12.20
2018-11-14T09:01:03.605Z,9.93
2018-11-14T09:03:32.868Z,11.33
2018-11-14T09:06:02.477Z,9.70
2018-11-14T09:08:32.230Z,12.25
2018-11-14T09:11:01.532Z,13.00
2018-11-14T09:13:31.179Z,8.63
2018-11-14T09:16:00.402Z,9.60
2018-11-14T09:18:29.398Z,11.78
2018-11-14T09:20:59.101Z,10.50
2018-11-14T09:23:28.157Z,10.93
2018-11-14T09:25:57.422Z,12.97
2018-11-14T09:28:27.530Z,10.43
2018-11-14T09:30:57.049Z,12.77
2018-11-14T09:33:26.602Z,14.10
2018-11-14T09:35:56.165Z,9.70
2018-11-14T09:38:25.434Z,8.90
2018-11-14T09:40:55.020Z,9.60
2018-11-14T09:43:24.466Z,17.47
2018-11-14T09:45:54.051Z,10.63
2018-11-14T09:48:23.319Z,10.53
2018-11-14T09:50:53.082Z,10.72
2018-11-14T09:53:22.475Z,7.80
2018-11-14T09:55:51.890Z,10.27
2018-11-14T09:58:21.510Z,9.00
2018-11-14T10:00:50.810Z,10.17
2018-11-14T10:03:21.398Z,7.72
2018-11-14T10:05:51.440Z,11.90
2018-11-14T10:08:21.492Z,8.93
2018-11-14T10:10:51.056Z,11.53
2018-11-14T10:13:21.448Z,10.40
2018-11-14T10:15:50.460Z,8.40
2018-11-14T10:18:21.404Z,9.84
2018-11-14T10:20:51.182Z,8.93
2018-11-14T10:23:21.594Z,8.90
2018-11-14T10:25:50.851Z,9.23
2018-11-14T10:28:21.475Z,8.50
2018-11-14T10:30:54.120Z,7.83
2018-11-14T10:33:23.258Z,10.23
2018-11-14T10:35:52.534Z,8.50
2018-11-14T10:38:21.802Z,13.17
2018-11-14T10:40:51.374Z,9.80
2018-11-14T10:43:21.533Z,11.12
2018-11-14T10:45:51.346Z,9.17
2018-11-14T10:48:21.498Z,7.80
2018-11-14T10:50:50.827Z,10.47
2018-11-14T10:53:21.963Z,9.45
2018-11-14T10:55:51.286Z,8.80
2018-11-14T10:58:21.165Z,10.78
2018-11-14T11:00:50.722Z,8.60
2018-11-14T11:03:20.918Z,10.70
2018-11-14T11:05:50.094Z,8.00
2018-11-14T11:08:23.197Z,7.10
2018-11-14T11:10:52.605Z,6.50
2018-11-14T11:13:21.933Z,14.70
2018-11-14T11:15:50.874Z,8.03
2018-11-14T11:18:19.543Z,7.17
2018-11-14T11:20:49.569Z,9.50
2018-11-14T11:23:18.828Z,11.50
2018-11-14T11:25:49.198Z,7.27
2018-11-14T11:28:18.235Z,8.43
2018-11-14T11:30:47.573Z,8.37
2018-11-14T11:33:16.640Z,9.10
2018-11-14T11:35:45.565Z,6.07
2018-11-14T11:38:14.591Z,4.83
2018-11-14T11:40:43.991Z,7.43
2018-11-14T11:43:13.461Z,5.77
2018-11-14T11:45:42.723Z,6.33
2018-11-14T11:48:11.138Z,7.30
2018-11-14T11:50:40.445Z,11.60
2018-11-14T11:53:10.698Z,9.17
2018-11-14T11:55:39.972Z,5.93
2018-11-14T11:58:09.415Z,9.03
2018-11-14T12:00:38.899Z,7.80
2018-11-14T12:03:08.495Z,4.60
2018-11-14T12:05:37.823Z,6.37
2018-11-14T12:08:06.962Z,6.37
2018-11-14T12:10:36.624Z,4.33
2018-11-14T12:13:06.130Z,6.23
2018-11-14T12:15:35.850Z,5.60
2018-11-14T12:18:05.003Z,8.23
2018-11-14T12:20:34.454Z,6.73
2018-11-14T12:23:03.710Z,5.33
2018-11-14T12:25:33.003Z,5.00
2018-11-14T12:28:02.461Z,5.53
2018-11-14T12:30:31.749Z,6.15
2018-11-14T12:33:01.722Z,8.18
2018-11-14T12:35:31.048Z,5.77
2018-11-14T12:38:00.482Z,6.03
2018-11-14T12:40:29.758Z,5.75
2018-11-14T12:42:59.017Z,5.93
2018-11-14T12:45:28.369Z,8.43
2018-11-14T12:47:57.644Z,5.80
2018-11-14T12:50:26.917Z,6.73
2018-11-14T12:52:56.488Z,6.42
2018-11-14T12:55:25.773Z,6.73
2018-11-14T12:57:55.337Z,5.00
2018-11-14T13:00:25.042Z,5.60
2018-11-14T13:02:54.590Z,7.80
2018-11-14T13:05:24.067Z,6.80
2018-11-14T13:07:53.261Z,4.67
2018-11-14T13:10:22.812Z,6.73
2018-11-14T13:12:52.374Z,6.33
2018-11-14T13:15:22.082Z,7.00
2018-11-14T13:17:59.863Z,9.18
2018-11-14T13:20:29.128Z,4.00
2018-11-14T13:22:58.721Z,3.63
2018-11-14T13:25:28.002Z,5.83
2018-11-14T13:27:57.544Z,6.47
2018-11-14T13:30:27.005Z,4.20
2018-11-14T13:32:56.701Z,4.73
2018-11-14T13:35:25.967Z,2.40
2018-11-14T13:37:55.531Z,5.57
2018-11-14T13:40:24.850Z,6.67
2018-11-14T13:42:54.126Z,7.10
2018-11-14T13:45:23.691Z,5.45
2018-11-14T13:47:52.962Z,11.23
2018-11-14T13:50:22.404Z,5.05
2018-11-14T13:52:51.750Z,5.20
2018-11-14T13:55:21.908Z,5.92
2018-11-14T13:57:51.171Z,8.20
2018-11-14T14:00:21.582Z,7.06
2018-11-14T14:02:50.633Z,10.53
2018-11-14T14:05:20.086Z,8.10
2018-11-14T14:07:49.642Z,6.07
2018-11-14T14:10:18.350Z,7.37
2018-11-14T14:12:47.478Z,5.23
2018-11-14T14:15:16.582Z,6.20
2018-11-14T14:17:45.813Z,7.50
2018-11-14T14:20:15.095Z,6.53
2018-11-14T14:22:44.282Z,6.10
2018-11-14T14:25:13.930Z,4.27
2018-11-14T14:27:43.190Z,9.00
2018-11-14T14:30:12.170Z,6.33
2018-11-14T14:32:41.823Z,6.50
2018-11-14T14:35:11.046Z,4.80
2018-11-14T14:37:40.303Z,4.50
2018-11-14T14:40:09.197Z,5.60
2018-11-14T14:42:39.249Z,5.60
2018-11-14T14:45:08.289Z,5.00
2018-11-14T14:47:38.198Z,15.13
2018-11-14T14:50:06.910Z,9.47
2018-11-14T14:52:36.717Z,7.60
2018-11-14T14:55:05.448Z,6.83
2018-11-14T14:57:35.555Z,7.22
2018-11-14T15:00:05.482Z,6.67
2018-11-14T15:02:35.054Z,9.03
2018-11-14T15:05:04.430Z,7.30
2018-11-14T15:07:34.299Z,6.40
2018-11-14T15:10:03.222Z,7.90
2018-11-14T15:12:32.151Z,7.85
2018-11-14T15:15:01.197Z,5.60
2018-11-14T15:17:30.232Z,6.30
2018-11-14T15:19:59.790Z,9.47
2018-11-14T15:22:29.568Z,7.70
2018-11-14T15:24:59.105Z,5.10
2018-11-14T15:27:28.379Z,5.03
2018-11-14T15:29:58.151Z,19.48
2018-11-14T15:32:40.159Z,10.80
2018-11-14T15:35:20.994Z,8.53
2018-11-14T15:38:02.706Z,17.13
2018-11-14T15:40:44.381Z,7.90
2018-11-14T15:43:23.665Z,5.53
2018-11-14T15:45:52.999Z,7.53
2018-11-14T15:48:22.382Z,8.33
2018-11-14T15:50:51.641Z,11.00
2018-11-14T15:53:22.262Z,7.37
2018-11-14T15:55:51.514Z,4.70
2018-11-14T15:58:22.179Z,7.60
2018-11-14T16:00:51.129Z,5.80
2018-11-14T16:03:20.442Z,7.30
2018-11-14T16:05:49.772Z,6.93
2018-11-14T16:08:19.279Z,9.93
2018-11-14T16:10:48.307Z,8.20
2018-11-14T16:13:17.581Z,10.40
2018-11-14T16:15:46.806Z,8.10
2018-11-14T16:18:16.095Z,9.03
2018-11-14T16:20:45.650Z,10.20
2018-11-14T16:23:15.211Z,8.25
2018-11-14T16:25:44.465Z,8.67
2018-11-14T16:28:13.753Z,9.13
2018-11-14T16:30:43.225Z,6.17
2018-11-14T16:33:12.684Z,7.20
2018-11-14T16:35:41.966Z,5.60
2018-11-14T16:38:11.310Z,7.40
2018-11-14T16:40:40.843Z,7.27
2018-11-14T16:43:10.365Z,13.80
2018-11-14T16:45:39.499Z,5.35
2018-11-14T16:48:08.778Z,5.40
2018-11-14T16:50:38.335Z,6.10
2018-11-14T16:53:07.614Z,11.13
2018-11-14T16:55:37.759Z,7.50
2018-11-14T16:58:06.738Z,10.37
2018-11-14T17:00:36.015Z,11.30
2018-11-14T17:03:04.955Z,35.03
2018-11-14T17:05:34.975Z,67.60
2018-11-14T17:08:04.736Z,37.47
2018-11-14T17:10:34.315Z,30.88
2018-11-14T17:13:03.595Z,13.47
2018-11-14T17:15:32.862Z,11.20
2018-11-14T17:18:02.426Z,10.32
2018-11-14T17:20:31.369Z,7.92
2018-11-14T17:23:00.645Z,9.70
2018-11-14T17:25:29.980Z,14.40
2018-11-14T17:27:59.429Z,9.28
2018-11-14T17:30:28.717Z,12.13
2018-11-14T17:32:58.349Z,8.47
2018-11-14T17:35:27.755Z,14.00
2018-11-14T17:37:58.006Z,11.50
2018-11-14T17:40:27.222Z,10.53
2018-11-14T17:42:56.605Z,13.30
2018-11-14T17:45:25.898Z,13.07
2018-11-14T17:47:55.452Z,10.37
2018-11-14T17:50:24.518Z,12.67
2018-11-14T17:52:53.555Z,9.80
2018-11-14T17:55:22.896Z,9.73
2018-11-14T17:57:52.602Z,8.83
2018-11-14T18:00:22.862Z,11.08
2018-11-14T18:02:52.185Z,11.43
2018-11-14T18:05:22.602Z,14.95
2018-11-14T18:07:51.657Z,11.70
2018-11-14T18:10:20.603Z,11.13
2018-11-14T18:12:50.046Z,12.90
2018-11-14T18:15:19.950Z,11.30
2018-11-14T18:17:49.502Z,10.78
2018-11-14T18:20:18.538Z,10.47
2018-11-14T18:22:48.290Z,13.47
2018-11-14T18:25:17.312Z,16.27
2018-11-14T18:27:46.591Z,12.13
2018-11-14T18:30:15.303Z,11.97
2018-11-14T18:32:44.817Z,11.30
2018-11-14T18:35:14.416Z,16.32
2018-11-14T18:37:43.364Z,15.27
2018-11-14T18:40:12.699Z,13.13
2018-11-14T18:42:41.732Z,12.00
2018-11-14T18:45:10.677Z,12.90
2018-11-14T18:47:39.996Z,13.73
2018-11-14T18:50:09.022Z,14.10
2018-11-14T18:52:38.622Z,11.90
2018-11-14T18:55:07.556Z,13.57
2018-11-14T18:57:37.121Z,12.40
2018-11-14T19:00:07.011Z,13.20
2018-11-14T19:02:37.965Z,11.93
2018-11-14T19:05:07.466Z,16.42
2018-11-14T19:07:36.881Z,18.60
2018-11-14T19:10:05.582Z,14.23
2018-11-14T19:12:35.079Z,13.55
2018-11-14T19:15:04.083Z,17.43
2018-11-14T19:17:33.773Z,18.00
2018-11-14T19:20:03.450Z,13.17
2018-11-14T19:22:33.069Z,15.63
2018-11-14T19:25:02.403Z,15.57
2018-11-14T19:27:31.971Z,17.83
2018-11-14T19:30:01.809Z,34.03
2018-11-14T19:32:30.791Z,23.27
2018-11-14T19:35:00.198Z,24.67
2018-11-14T19:37:29.991Z,13.53
2018-11-14T19:40:00.178Z,15.07
2018-11-14T19:42:29.779Z,13.48
2018-11-14T19:44:59.269Z,13.17
2018-11-14T19:47:28.880Z,13.25
2018-11-14T19:49:58.171Z,13.20
2018-11-14T19:52:27.744Z,14.73
2018-11-14T19:54:57.031Z,15.20
2018-11-14T19:57:26.583Z,14.50
2018-11-14T19:59:56.038Z,13.57
2018-11-14T20:02:25.435Z,14.73
2018-11-14T20:05:02.482Z,15.73
2018-11-14T20:07:33.237Z,14.30
2018-11-14T20:10:02.794Z,15.30
2018-11-14T20:12:32.120Z,12.83
2018-11-14T20:15:01.713Z,13.40
2018-11-14T20:17:31.127Z,16.67
2018-11-14T20:20:00.705Z,16.48
2018-11-14T20:22:30.835Z,13.40
2018-11-14T20:25:00.091Z,14.00
2018-11-14T20:27:29.399Z,12.80
2018-11-14T20:29:59.037Z,13.20
2018-11-14T20:32:28.316Z,13.70
2018-11-14T20:34:57.874Z,13.27
2018-11-14T20:37:27.293Z,14.18
2018-11-14T20:39:56.915Z,15.73
2018-11-14T20:42:26.169Z,13.80
2018-11-14T20:44:55.469Z,16.60
2018-11-14T20:47:25.026Z,17.73
2018-11-14T20:49:54.993Z,15.20
2018-11-14T20:52:24.287Z,16.83
2018-11-14T20:54:53.881Z,13.93
2018-11-14T20:57:23.330Z,18.27
2018-11-14T20:59:52.909Z,20.10
2018-11-14T21:02:23.360Z,16.90
2018-11-14T21:04:52.997Z,14.23
2018-11-14T21:07:23.351Z,16.93
2018-11-14T21:09:52.747Z,19.10
2018-11-14T21:12:23.362Z,15.93
2018-11-14T21:14:53.954Z,14.68
2018-11-14T21:17:23.390Z,16.73
2018-11-14T21:19:52.954Z,16.60
2018-11-14T21:22:23.314Z,19.37
2018-11-14T21:24:52.888Z,17.85
2018-11-14T21:27:23.390Z,15.80
2018-11-14T21:29:52.670Z,18.80
2018-11-14T21:32:23.360Z,16.27
2018-11-14T21:34:52.934Z,17.55
2018-11-14T21:37:23.466Z,17.75
2018-11-14T21:40:04.746Z,17.73
2018-11-14T21:42:44.258Z,19.63
2018-11-14T21:45:13.531Z,16.73
2018-11-14T21:47:42.890Z,17.60
2018-11-14T21:50:12.400Z,19.40
2018-11-14T21:52:42.059Z,18.33
2018-11-14T21:55:10.756Z,20.67
2018-11-14T21:57:39.789Z,16.80
2018-11-14T22:00:09.038Z,18.10
2018-11-14T22:02:38.403Z,16.60
2018-11-14T22:05:07.634Z,15.98
2018-11-14T22:07:36.976Z,18.12
2018-11-14T22:10:05.686Z,21.50
2018-11-14T22:12:35.251Z,17.90
2018-11-14T22:15:04.192Z,19.50
2018-11-14T22:17:33.411Z,15.17
2018-11-14T22:20:02.658Z,21.00
2018-11-14T22:22:32.229Z,16.43
2018-11-14T22:25:01.495Z,17.70
2018-11-14T22:27:31.682Z,20.57
2018-11-14T22:30:01.806Z,16.13
2018-11-14T22:32:31.373Z,21.77
2018-11-14T22:35:00.805Z,19.13
2018-11-14T22:37:30.741Z,18.20
2018-11-14T22:40:00.299Z,21.12
2018-11-14T22:42:30.148Z,22.67
2018-11-14T22:44:59.482Z,22.10
2018-11-14T22:47:28.754Z,19.53
2018-11-14T22:49:58.374Z,19.60
2018-11-14T22:52:27.698Z,17.03
2018-11-14T22:54:57.266Z,21.50
2018-11-14T22:57:26.842Z,20.17
2018-11-14T22:59:56.591Z,20.90
2018-11-14T23:02:25.865Z,16.70
2018-11-14T23:04:55.470Z,19.40
2018-11-14T23:07:24.774Z,21.50
2018-11-14T23:09:54.401Z,19.60
2018-11-14T23:12:23.989Z,21.83
2018-11-14T23:14:53.594Z,22.07
2018-11-14T23:17:23.902Z,18.57
2018-11-14T23:19:53.778Z,20.12
2018-11-14T23:22:23.922Z,20.15
2018-11-14T23:24:53.786Z,21.57
2018-11-14T23:27:23.575Z,21.82
2018-11-14T23:29:52.599Z,21.17
2018-11-14T23:32:21.882Z,21.13
2018-11-14T23:34:51.208Z,22.35
2018-11-14T23:37:20.910Z,21.73
2018-11-14T23:39:51.034Z,20.37
2018-11-14T23:42:20.590Z,25.17
2018-11-14T23:44:49.858Z,21.40
2018-11-14T23:47:19.425Z,22.37
2018-11-14T23:49:48.694Z,18.63
2018-11-14T23:52:17.978Z,21.47
2018-11-14T23:54:47.502Z,23.57
2018-11-14T23:57:16.772Z,18.90
2018-11-14T23:59:46.251Z,17.77
